AVA9401 SKBO-SKPS
Flight info
| Callsign | AVA9401 |
|---|---|
| Flight time | 0h 50m |
| Altitude | FL320 |
| Route | OREGA PPN MER |
| Aircraft | A319/M-SDE3FGHIRWY/LB1 |
Departure
| Time | 2026-04-20 19:40 |
|---|---|
| Airport | El Dorado International Airport (SKBO) |
Arrival
| Time | 2026-04-20 20:30 |
|---|---|
| Airport | Antonio Nariño Airport (SKPS) |
| Time | Latitude | Longitude | Altitude | Speed | Heading |
|---|---|---|---|---|---|
| 2026-04-20 18:50 | 4.69752 | -74.14496 | 8423 ft | 0 kts | 37° |
| 2026-04-20 19:22 | 4.69745 | -74.14501 | 8422 ft | 2 kts | 37° |
| 2026-04-20 19:22 | 4.69733 | -74.14510 | 8423 ft | 2 kts | 37° |
| 2026-04-20 19:23 | 4.69721 | -74.14519 | 8423 ft | 2 kts | 37° |
| 2026-04-20 19:23 | 4.69708 | -74.14525 | 8424 ft | 2 kts | 356° |
| 2026-04-20 19:23 | 4.69694 | -74.14520 | 8423 ft | 2 kts | 315° |
| 2026-04-20 19:23 | 4.69686 | -74.14507 | 8423 ft | 2 kts | 306° |
| 2026-04-20 19:24 | 4.69676 | -74.14496 | 8422 ft | 2 kts | 307° |
| 2026-04-20 19:24 | 4.69667 | -74.14483 | 8422 ft | 2 kts | 307° |
| 2026-04-20 19:24 | 4.69660 | -74.14473 | 8422 ft | 0 kts | 307° |
| 2026-04-20 19:27 | 4.69661 | -74.14474 | 8421 ft | 1 kts | 307° |
| 2026-04-20 19:27 | 4.69665 | -74.14481 | 8421 ft | 2 kts | 307° |
| 2026-04-20 19:28 | 4.69678 | -74.14498 | 8421 ft | 4 kts | 307° |
| 2026-04-20 19:28 | 4.69701 | -74.14529 | 8421 ft | 7 kts | 307° |
| 2026-04-20 19:28 | 4.69734 | -74.14574 | 8421 ft | 9 kts | 306° |
| 2026-04-20 19:28 | 4.69777 | -74.14630 | 8421 ft | 11 kts | 308° |
| 2026-04-20 19:29 | 4.69826 | -74.14693 | 8420 ft | 12 kts | 307° |
| 2026-04-20 19:29 | 4.69868 | -74.14748 | 8420 ft | 10 kts | 309° |
| 2026-04-20 19:29 | 4.69914 | -74.14804 | 8420 ft | 11 kts | 308° |
| 2026-04-20 19:29 | 4.69928 | -74.14821 | 8420 ft | 1 kts | 307° |
| 2026-04-20 19:30 | 4.69932 | -74.14827 | 8420 ft | 1 kts | 307° |
| 2026-04-20 19:30 | 4.69940 | -74.14842 | 8420 ft | 4 kts | 287° |
| 2026-04-20 19:30 | 4.69932 | -74.14875 | 8420 ft | 7 kts | 233° |
| 2026-04-20 19:30 | 4.69879 | -74.14919 | 8419 ft | 12 kts | 218° |
| 2026-04-20 19:31 | 4.69869 | -74.14997 | 8419 ft | 14 kts | 308° |
| 2026-04-20 19:31 | 4.69935 | -74.15083 | 8419 ft | 17 kts | 307° |
| 2026-04-20 19:31 | 4.70012 | -74.15185 | 8418 ft | 20 kts | 307° |
| 2026-04-20 19:31 | 4.70100 | -74.15301 | 8418 ft | 22 kts | 307° |
| 2026-04-20 19:32 | 4.70198 | -74.15432 | 8417 ft | 25 kts | 307° |
| 2026-04-20 19:32 | 4.70306 | -74.15573 | 8417 ft | 26 kts | 307° |
| 2026-04-20 19:32 | 4.70420 | -74.15723 | 8416 ft | 28 kts | 307° |
| 2026-04-20 19:32 | 4.70537 | -74.15877 | 8416 ft | 27 kts | 307° |
| 2026-04-20 19:33 | 4.70646 | -74.16022 | 8415 ft | 22 kts | 307° |
| 2026-04-20 19:33 | 4.70735 | -74.16140 | 8414 ft | 21 kts | 307° |
| 2026-04-20 19:33 | 4.70820 | -74.16253 | 8414 ft | 20 kts | 307° |
| 2026-04-20 19:33 | 4.70903 | -74.16362 | 8413 ft | 19 kts | 307° |
| 2026-04-20 19:34 | 4.70982 | -74.16468 | 8413 ft | 19 kts | 307° |
| 2026-04-20 19:34 | 4.71061 | -74.16571 | 8412 ft | 18 kts | 307° |
| 2026-04-20 19:34 | 4.71136 | -74.16671 | 8412 ft | 18 kts | 307° |
| 2026-04-20 19:34 | 4.71198 | -74.16754 | 8411 ft | 12 kts | 298° |
| 2026-04-20 19:35 | 4.71168 | -74.16821 | 8411 ft | 12 kts | 218° |
| 2026-04-20 19:35 | 4.71143 | -74.16839 | 8411 ft | 0 kts | 215° |
| 2026-04-20 19:35 | 4.71141 | -74.16841 | 8411 ft | 2 kts | 215° |
| 2026-04-20 19:36 | 4.71114 | -74.16859 | 8411 ft | 8 kts | 215° |
| 2026-04-20 19:36 | 4.71060 | -74.16894 | 8411 ft | 9 kts | 201° |
| 2026-04-20 19:36 | 4.71014 | -74.16869 | 8411 ft | 5 kts | 122° |
| 2026-04-20 19:36 | 4.71011 | -74.16865 | 8411 ft | 0 kts | 125° |
| 2026-04-20 19:39 | 4.71010 | -74.16863 | 8412 ft | 1 kts | 125° |
| 2026-04-20 19:39 | 4.70945 | -74.16777 | 8412 ft | 46 kts | 127° |
| 2026-04-20 19:39 | 4.70600 | -74.16324 | 8415 ft | 116 kts | 127° |
| 2026-04-20 19:39 | 4.69989 | -74.15516 | 8418 ft | 174 kts | 127° |
| 2026-04-20 19:40 | 4.69203 | -74.14461 | 8798 ft | 189 kts | 127° |
| 2026-04-20 19:40 | 4.68436 | -74.13523 | 9621 ft | 174 kts | 146° |
| 2026-04-20 19:40 | 4.67350 | -74.13140 | 10174 ft | 164 kts | 189° |
| 2026-04-20 19:40 | 4.66315 | -74.13562 | 10447 ft | 167 kts | 227° |
| 2026-04-20 19:41 | 4.65618 | -74.14530 | 10671 ft | 179 kts | 243° |
| 2026-04-20 19:41 | 4.65018 | -74.15675 | 10915 ft | 193 kts | 246° |
| 2026-04-20 19:41 | 4.64392 | -74.16912 | 11223 ft | 206 kts | 243° |
| 2026-04-20 19:41 | 4.63642 | -74.18178 | 11564 ft | 218 kts | 238° |
| 2026-04-20 19:42 | 4.62728 | -74.19437 | 11909 ft | 231 kts | 233° |
| 2026-04-20 19:42 | 4.61813 | -74.20808 | 12210 ft | 244 kts | 245° |
| 2026-04-20 19:42 | 4.61240 | -74.22463 | 12491 ft | 262 kts | 258° |
| 2026-04-20 19:42 | 4.60852 | -74.24300 | 12823 ft | 279 kts | 260° |
| 2026-04-20 19:43 | 4.60436 | -74.26249 | 13115 ft | 297 kts | 256° |
| 2026-04-20 19:43 | 4.59755 | -74.28260 | 13376 ft | 315 kts | 248° |
| 2026-04-20 19:43 | 4.58787 | -74.30307 | 13634 ft | 332 kts | 244° |
| 2026-04-20 19:43 | 4.57711 | -74.32406 | 13952 ft | 346 kts | 243° |
| 2026-04-20 19:44 | 4.56598 | -74.34554 | 14475 ft | 351 kts | 243° |
| 2026-04-20 19:44 | 4.55477 | -74.36723 | 15051 ft | 354 kts | 243° |
| 2026-04-20 19:44 | 4.54348 | -74.38915 | 15587 ft | 357 kts | 243° |
| 2026-04-20 19:44 | 4.53212 | -74.41128 | 16128 ft | 361 kts | 243° |
| 2026-04-20 19:45 | 4.52067 | -74.43362 | 16668 ft | 363 kts | 243° |
| 2026-04-20 19:45 | 4.50906 | -74.45630 | 17174 ft | 367 kts | 243° |
| 2026-04-20 19:45 | 4.49743 | -74.47899 | 17687 ft | 369 kts | 243° |
| 2026-04-20 19:45 | 4.48570 | -74.50191 | 18199 ft | 372 kts | 243° |
| 2026-04-20 19:46 | 4.47388 | -74.52502 | 18734 ft | 375 kts | 243° |
| 2026-04-20 19:46 | 4.46198 | -74.54829 | 19221 ft | 378 kts | 243° |
| 2026-04-20 19:46 | 4.45000 | -74.57170 | 19708 ft | 381 kts | 243° |
| 2026-04-20 19:46 | 4.43792 | -74.59529 | 19994 ft | 382 kts | 243° |
| 2026-04-20 19:47 | 4.42574 | -74.61907 | 20029 ft | 382 kts | 243° |
| 2026-04-20 19:47 | 4.41366 | -74.64265 | 20012 ft | 382 kts | 243° |
| 2026-04-20 19:47 | 4.40156 | -74.66628 | 20012 ft | 382 kts | 243° |
| 2026-04-20 19:47 | 4.38946 | -74.68990 | 19991 ft | 382 kts | 243° |
| 2026-04-20 19:48 | 4.37729 | -74.71349 | 19971 ft | 382 kts | 243° |
| 2026-04-20 19:48 | 4.36513 | -74.73708 | 19957 ft | 382 kts | 242° |
| 2026-04-20 19:48 | 4.35296 | -74.76069 | 19948 ft | 383 kts | 243° |
| 2026-04-20 19:48 | 4.34071 | -74.78446 | 19947 ft | 382 kts | 243° |
| 2026-04-20 19:49 | 4.32854 | -74.80809 | 19925 ft | 382 kts | 243° |
| 2026-04-20 19:49 | 4.31638 | -74.83167 | 19914 ft | 382 kts | 243° |
| 2026-04-20 19:49 | 4.30425 | -74.85520 | 19915 ft | 381 kts | 242° |
| 2026-04-20 19:49 | 4.29212 | -74.87875 | 19911 ft | 382 kts | 242° |
| 2026-04-20 19:50 | 4.27997 | -74.90233 | 19904 ft | 382 kts | 242° |
| 2026-04-20 19:50 | 4.26780 | -74.92594 | 19907 ft | 382 kts | 243° |
| 2026-04-20 19:50 | 4.25556 | -74.94973 | 19909 ft | 383 kts | 243° |
| 2026-04-20 19:50 | 4.24339 | -74.97334 | 19915 ft | 383 kts | 243° |
| 2026-04-20 19:51 | 4.23121 | -74.99699 | 19920 ft | 383 kts | 243° |
| 2026-04-20 19:51 | 4.21898 | -75.02060 | 19930 ft | 383 kts | 242° |
| 2026-04-20 19:51 | 4.20567 | -75.04366 | 19928 ft | 383 kts | 238° |
| 2026-04-20 19:51 | 4.19084 | -75.06587 | 20019 ft | 388 kts | 234° |
| 2026-04-20 19:52 | 4.17476 | -75.08756 | 20497 ft | 389 kts | 233° |
| 2026-04-20 19:52 | 4.15849 | -75.10927 | 21040 ft | 389 kts | 233° |
| 2026-04-20 19:52 | 4.14227 | -75.13089 | 21488 ft | 390 kts | 232° |
| 2026-04-20 19:52 | 4.12600 | -75.15260 | 21911 ft | 392 kts | 232° |
| 2026-04-20 19:53 | 4.10962 | -75.17446 | 22323 ft | 395 kts | 232° |
| 2026-04-20 19:53 | 4.09312 | -75.19649 | 22742 ft | 398 kts | 232° |
| 2026-04-20 19:53 | 4.07653 | -75.21864 | 23155 ft | 400 kts | 232° |
| 2026-04-20 19:53 | 4.05983 | -75.24094 | 23575 ft | 402 kts | 232° |
| 2026-04-20 19:54 | 4.04294 | -75.26351 | 24000 ft | 404 kts | 232° |
| 2026-04-20 19:54 | 4.02607 | -75.28604 | 24419 ft | 406 kts | 232° |
| 2026-04-20 19:54 | 4.00913 | -75.30868 | 24833 ft | 408 kts | 232° |
| 2026-04-20 19:54 | 3.99211 | -75.33141 | 25235 ft | 410 kts | 232° |
| 2026-04-20 19:55 | 3.97500 | -75.35428 | 25617 ft | 412 kts | 232° |
| 2026-04-20 19:55 | 3.95779 | -75.37727 | 25997 ft | 415 kts | 232° |
| 2026-04-20 19:55 | 3.94050 | -75.40039 | 26382 ft | 417 kts | 232° |
| 2026-04-20 19:55 | 3.92301 | -75.42375 | 26771 ft | 418 kts | 232° |
| 2026-04-20 19:56 | 3.91144 | -75.43920 | 27020 ft | 420 kts | 232° |
| 2026-04-20 19:56 | 3.88776 | -75.47048 | 27510 ft | 422 kts | 230° |
| 2026-04-20 19:56 | 3.86842 | -75.49251 | 27871 ft | 423 kts | 225° |
| 2026-04-20 19:56 | 3.84717 | -75.51285 | 28217 ft | 425 kts | 220° |
| 2026-04-20 19:57 | 3.82432 | -75.53160 | 28559 ft | 426 kts | 217° |
| 2026-04-20 19:57 | 3.80100 | -75.54998 | 28894 ft | 429 kts | 217° |
| 2026-04-20 19:57 | 3.77733 | -75.56855 | 29236 ft | 431 kts | 217° |
| 2026-04-20 19:57 | 3.75370 | -75.58708 | 29587 ft | 433 kts | 217° |
| 2026-04-20 19:58 | 3.73002 | -75.60568 | 29966 ft | 434 kts | 217° |
| 2026-04-20 19:58 | 3.70638 | -75.62427 | 30437 ft | 432 kts | 217° |
| 2026-04-20 19:58 | 3.68282 | -75.64282 | 30927 ft | 431 kts | 217° |
| 2026-04-20 19:58 | 3.65936 | -75.66130 | 31404 ft | 429 kts | 217° |
| 2026-04-20 19:59 | 3.63596 | -75.67974 | 31855 ft | 428 kts | 217° |
| 2026-04-20 19:59 | 3.61242 | -75.69829 | 32243 ft | 429 kts | 217° |
| 2026-04-20 19:59 | 3.58898 | -75.71675 | 32586 ft | 430 kts | 217° |
| 2026-04-20 19:59 | 3.56546 | -75.73528 | 32952 ft | 431 kts | 217° |
| 2026-04-20 20:00 | 3.54189 | -75.75384 | 33328 ft | 433 kts | 217° |
| 2026-04-20 20:00 | 3.51823 | -75.77249 | 33468 ft | 434 kts | 217° |
| 2026-04-20 20:00 | 3.49452 | -75.79117 | 33474 ft | 434 kts | 217° |
| 2026-04-20 20:01 | 3.44694 | -75.82863 | 33502 ft | 434 kts | 217° |
| 2026-04-20 20:01 | 3.39953 | -75.86596 | 33548 ft | 434 kts | 217° |
| 2026-04-20 20:02 | 3.35212 | -75.90331 | 33599 ft | 434 kts | 217° |
| 2026-04-20 20:02 | 3.30473 | -75.94064 | 33654 ft | 434 kts | 217° |
| 2026-04-20 20:03 | 3.25718 | -75.97804 | 33691 ft | 434 kts | 217° |
| 2026-04-20 20:03 | 3.20977 | -76.01535 | 33718 ft | 434 kts | 217° |
| 2026-04-20 20:04 | 3.16245 | -76.05259 | 33709 ft | 433 kts | 217° |
| 2026-04-20 20:04 | 3.11497 | -76.08994 | 33707 ft | 433 kts | 217° |
| 2026-04-20 20:05 | 3.06768 | -76.12715 | 33667 ft | 433 kts | 217° |
| 2026-04-20 20:05 | 3.02034 | -76.16437 | 33666 ft | 434 kts | 217° |
| 2026-04-20 20:06 | 2.97302 | -76.20164 | 33636 ft | 434 kts | 217° |
| 2026-04-20 20:06 | 2.92548 | -76.23903 | 33616 ft | 434 kts | 217° |
| 2026-04-20 20:07 | 2.87803 | -76.27635 | 33570 ft | 434 kts | 217° |
| 2026-04-20 20:07 | 2.83062 | -76.31365 | 33554 ft | 434 kts | 217° |
| 2026-04-20 20:08 | 2.78295 | -76.35115 | 33253 ft | 434 kts | 217° |
| 2026-04-20 20:08 | 2.75932 | -76.36975 | 32963 ft | 432 kts | 217° |
| 2026-04-20 20:08 | 2.73574 | -76.38829 | 32678 ft | 430 kts | 217° |
| 2026-04-20 20:08 | 2.71230 | -76.40672 | 32418 ft | 429 kts | 217° |
| 2026-04-20 20:09 | 2.68891 | -76.42512 | 32162 ft | 428 kts | 217° |
| 2026-04-20 20:09 | 2.66549 | -76.44353 | 31908 ft | 429 kts | 217° |
| 2026-04-20 20:09 | 2.64201 | -76.46200 | 31574 ft | 431 kts | 217° |
| 2026-04-20 20:09 | 2.61828 | -76.48067 | 31079 ft | 433 kts | 217° |
| 2026-04-20 20:10 | 2.59466 | -76.49924 | 30460 ft | 434 kts | 217° |
| 2026-04-20 20:10 | 2.57098 | -76.51786 | 29755 ft | 435 kts | 217° |
| 2026-04-20 20:10 | 2.54722 | -76.53656 | 29074 ft | 436 kts | 218° |
| 2026-04-20 20:10 | 2.52358 | -76.55518 | 28572 ft | 432 kts | 218° |
| 2026-04-20 20:11 | 2.50013 | -76.57363 | 28089 ft | 428 kts | 218° |
| 2026-04-20 20:11 | 2.47689 | -76.59191 | 27614 ft | 424 kts | 218° |
| 2026-04-20 20:11 | 2.45373 | -76.61012 | 27147 ft | 419 kts | 218° |
| 2026-04-20 20:11 | 2.43111 | -76.62815 | 26705 ft | 415 kts | 219° |
| 2026-04-20 20:12 | 2.40888 | -76.64622 | 26275 ft | 410 kts | 219° |
| 2026-04-20 20:12 | 2.38686 | -76.66418 | 25834 ft | 406 kts | 219° |
| 2026-04-20 20:12 | 2.36514 | -76.68189 | 25389 ft | 402 kts | 219° |
| 2026-04-20 20:13 | 2.32230 | -76.71682 | 24488 ft | 395 kts | 219° |
| 2026-04-20 20:13 | 2.30096 | -76.73419 | 24038 ft | 392 kts | 220° |
| 2026-04-20 20:13 | 2.27995 | -76.75132 | 23588 ft | 389 kts | 220° |
| 2026-04-20 20:13 | 2.25907 | -76.76832 | 23153 ft | 386 kts | 220° |
| 2026-04-20 20:14 | 2.23836 | -76.78520 | 22714 ft | 384 kts | 220° |
| 2026-04-20 20:14 | 2.21778 | -76.80196 | 22282 ft | 381 kts | 220° |
| 2026-04-20 20:14 | 2.19733 | -76.81860 | 21864 ft | 379 kts | 220° |
| 2026-04-20 20:14 | 2.17699 | -76.83517 | 21434 ft | 377 kts | 220° |
| 2026-04-20 20:15 | 2.15658 | -76.85179 | 20982 ft | 376 kts | 220° |
| 2026-04-20 20:15 | 2.13640 | -76.86823 | 20533 ft | 375 kts | 220° |
| 2026-04-20 20:15 | 2.11630 | -76.88461 | 20086 ft | 373 kts | 220° |
| 2026-04-20 20:15 | 2.09625 | -76.90094 | 19636 ft | 372 kts | 220° |
| 2026-04-20 20:16 | 2.07626 | -76.91723 | 19178 ft | 371 kts | 219° |
| 2026-04-20 20:16 | 2.05632 | -76.93347 | 18718 ft | 370 kts | 219° |
| 2026-04-20 20:16 | 2.03643 | -76.94966 | 18254 ft | 369 kts | 219° |
| 2026-04-20 20:16 | 2.01645 | -76.96592 | 17791 ft | 368 kts | 219° |
| 2026-04-20 20:17 | 1.99669 | -76.98200 | 17335 ft | 366 kts | 219° |
| 2026-04-20 20:17 | 1.97701 | -76.99801 | 16894 ft | 365 kts | 219° |
| 2026-04-20 20:17 | 1.95738 | -77.01397 | 16454 ft | 364 kts | 220° |
| 2026-04-20 20:17 | 1.93776 | -77.02993 | 16024 ft | 363 kts | 220° |
| 2026-04-20 20:18 | 1.91825 | -77.04582 | 15584 ft | 362 kts | 220° |
| 2026-04-20 20:18 | 1.89875 | -77.06171 | 15146 ft | 361 kts | 220° |
| 2026-04-20 20:18 | 1.87924 | -77.07759 | 14800 ft | 354 kts | 220° |
| 2026-04-20 20:18 | 1.86069 | -77.09269 | 14663 ft | 334 kts | 220° |
| 2026-04-20 20:19 | 1.84318 | -77.10695 | 14532 ft | 315 kts | 220° |
| 2026-04-20 20:19 | 1.82668 | -77.12039 | 14407 ft | 298 kts | 220° |
| 2026-04-20 20:19 | 1.81106 | -77.13311 | 14296 ft | 283 kts | 220° |
| 2026-04-20 20:19 | 1.79576 | -77.14523 | 14186 ft | 279 kts | 217° |
| 2026-04-20 20:20 | 1.77965 | -77.15595 | 14122 ft | 282 kts | 212° |
| 2026-04-20 20:20 | 1.76234 | -77.16562 | 13834 ft | 284 kts | 210° |
| 2026-04-20 20:20 | 1.74493 | -77.17492 | 13505 ft | 284 kts | 209° |
| 2026-04-20 20:20 | 1.72749 | -77.18419 | 13169 ft | 284 kts | 209° |
| 2026-04-20 20:21 | 1.71007 | -77.19347 | 12842 ft | 284 kts | 209° |
| 2026-04-20 20:21 | 1.69269 | -77.20276 | 12525 ft | 283 kts | 209° |
| 2026-04-20 20:21 | 1.67539 | -77.21200 | 12219 ft | 282 kts | 210° |
| 2026-04-20 20:21 | 1.65814 | -77.22123 | 11904 ft | 281 kts | 210° |
| 2026-04-20 20:22 | 1.64660 | -77.22742 | 11695 ft | 280 kts | 210° |
| 2026-04-20 20:22 | 1.62371 | -77.23968 | 11282 ft | 279 kts | 209° |
| 2026-04-20 20:22 | 1.60664 | -77.24883 | 10970 ft | 278 kts | 209° |
| 2026-04-20 20:22 | 1.58964 | -77.25793 | 10667 ft | 277 kts | 210° |
| 2026-04-20 20:23 | 1.57270 | -77.26701 | 10364 ft | 275 kts | 209° |
| 2026-04-20 20:23 | 1.55597 | -77.27596 | 10145 ft | 270 kts | 209° |
| 2026-04-20 20:23 | 1.53965 | -77.28468 | 10046 ft | 260 kts | 209° |
| 2026-04-20 20:23 | 1.52397 | -77.29303 | 10004 ft | 248 kts | 208° |
| 2026-04-20 20:24 | 1.50891 | -77.30065 | 9776 ft | 236 kts | 207° |
| 2026-04-20 20:24 | 1.49475 | -77.30768 | 9634 ft | 216 kts | 207° |
| 2026-04-20 20:24 | 1.48176 | -77.31414 | 9448 ft | 201 kts | 207° |
| 2026-04-20 20:24 | 1.46979 | -77.32007 | 9243 ft | 184 kts | 207° |
| 2026-04-20 20:25 | 1.45873 | -77.32529 | 9026 ft | 169 kts | 205° |
| 2026-04-20 20:25 | 1.44811 | -77.33003 | 8942 ft | 167 kts | 205° |
| 2026-04-20 20:25 | 1.43753 | -77.33500 | 8862 ft | 166 kts | 207° |
| 2026-04-20 20:25 | 1.42733 | -77.34037 | 8830 ft | 166 kts | 210° |
| 2026-04-20 20:26 | 1.41724 | -77.34594 | 8847 ft | 165 kts | 209° |
| 2026-04-20 20:26 | 1.40722 | -77.35141 | 8857 ft | 166 kts | 210° |
| 2026-04-20 20:26 | 1.39704 | -77.35691 | 8897 ft | 165 kts | 208° |
| 2026-04-20 20:26 | 1.38676 | -77.36180 | 8819 ft | 163 kts | 205° |
| 2026-04-20 20:27 | 1.37594 | -77.36551 | 8697 ft | 166 kts | 190° |
| 2026-04-20 20:27 | 1.36431 | -77.36548 | 8476 ft | 170 kts | 166° |
| 2026-04-20 20:27 | 1.35381 | -77.36018 | 8243 ft | 172 kts | 139° |
| 2026-04-20 20:27 | 1.34572 | -77.35119 | 7970 ft | 175 kts | 122° |
| 2026-04-20 20:28 | 1.34177 | -77.34423 | 7799 ft | 174 kts | 112° |
| 2026-04-20 20:28 | 1.33876 | -77.32890 | 7468 ft | 167 kts | 82° |
| 2026-04-20 20:28 | 1.34232 | -77.31822 | 7225 ft | 162 kts | 61° |
| 2026-04-20 20:28 | 1.34868 | -77.30906 | 6935 ft | 161 kts | 46° |
| 2026-04-20 20:29 | 1.35731 | -77.30226 | 6730 ft | 157 kts | 28° |
| 2026-04-20 20:29 | 1.36759 | -77.29842 | 6458 ft | 159 kts | 12° |
| 2026-04-20 20:29 | 1.37816 | -77.29586 | 6211 ft | 154 kts | 15° |
| 2026-04-20 20:29 | 1.38839 | -77.29314 | 6020 ft | 151 kts | 14° |
| 2026-04-20 20:30 | 1.39706 | -77.29084 | 5968 ft | 90 kts | 14° |
| 2026-04-20 20:30 | 1.40067 | -77.28989 | 5942 ft | 38 kts | 13° |
| 2026-04-20 20:30 | 1.40329 | -77.28920 | 5921 ft | 40 kts | 15° |
| 2026-04-20 20:30 | 1.40562 | -77.28859 | 5903 ft | 22 kts | 15° |
| 2026-04-20 20:31 | 1.40617 | -77.28847 | 5901 ft | 5 kts | 121° |
| 2026-04-20 20:31 | 1.40567 | -77.28853 | 5902 ft | 9 kts | 198° |
| 2026-04-20 20:31 | 1.40486 | -77.28878 | 5909 ft | 22 kts | 196° |
| 2026-04-20 20:31 | 1.40351 | -77.28915 | 5919 ft | 17 kts | 195° |
| 2026-04-20 20:32 | 1.40252 | -77.28940 | 5927 ft | 12 kts | 194° |
| 2026-04-20 20:32 | 1.40182 | -77.28958 | 5933 ft | 11 kts | 195° |
| 2026-04-20 20:32 | 1.40099 | -77.28981 | 5939 ft | 14 kts | 194° |
| 2026-04-20 20:32 | 1.39996 | -77.29008 | 5947 ft | 17 kts | 195° |
| 2026-04-20 20:33 | 1.39893 | -77.29036 | 5954 ft | 13 kts | 195° |
| 2026-04-20 20:33 | 1.39815 | -77.29058 | 5960 ft | 11 kts | 195° |
| 2026-04-20 20:33 | 1.39744 | -77.29075 | 5966 ft | 10 kts | 194° |
| 2026-04-20 20:33 | 1.39688 | -77.29085 | 5969 ft | 7 kts | 160° |
| 2026-04-20 20:34 | 1.39665 | -77.29034 | 5970 ft | 9 kts | 103° |
| 2026-04-20 20:34 | 1.39639 | -77.29014 | 5972 ft | 4 kts | 185° |
| 2026-04-20 20:34 | 1.39624 | -77.29014 | 5973 ft | 1 kts | 158° |
| 2026-04-20 20:34 | 1.39617 | -77.29006 | 5973 ft | 2 kts | 120° |
| 2026-04-20 20:35 | 1.39612 | -77.28991 | 5971 ft | 3 kts | 107° |
| 2026-04-20 20:35 | 1.39607 | -77.28975 | 5968 ft | 1 kts | 104° |
| 2026-04-20 20:35 | 1.39607 | -77.28974 | 5967 ft | 0 kts | 104° |